createdAt,value
2023-09-08T00:02:36.375Z,19.90
2023-09-08T00:03:18.318Z,19.80
2023-09-08T00:04:00.612Z,19.90
2023-09-08T00:04:42.680Z,19.80
2023-09-08T00:05:24.555Z,20.00
2023-09-08T00:06:06.491Z,19.90
2023-09-08T00:06:49.031Z,19.90
2023-09-08T00:08:13.485Z,19.90
2023-09-08T00:08:55.443Z,19.80
2023-09-08T00:09:37.447Z,19.90
2023-09-08T00:10:19.488Z,19.80
2023-09-08T00:11:01.492Z,19.80
2023-09-08T00:11:43.857Z,19.80
2023-09-08T00:12:28.316Z,19.80
2023-09-08T00:13:10.359Z,19.80
2023-09-08T00:13:52.439Z,19.80
2023-09-08T00:14:34.542Z,19.70
2023-09-08T00:15:16.546Z,19.70
2023-09-08T00:15:58.530Z,19.70
2023-09-08T00:16:43.990Z,19.70
2023-09-08T00:17:26.004Z,19.70
2023-09-08T00:18:08.120Z,19.70
2023-09-08T00:18:51.486Z,19.70
2023-09-08T00:19:33.585Z,19.70
2023-09-08T00:20:16.344Z,19.60
2023-09-08T00:20:58.155Z,19.60
2023-09-08T00:21:40.008Z,19.60
2023-09-08T00:22:21.963Z,19.60
2023-09-08T00:23:03.912Z,19.60
2023-09-08T00:24:28.413Z,19.60
2023-09-08T00:25:10.523Z,19.60
2023-09-08T00:25:52.546Z,19.60
2023-09-08T00:26:34.852Z,19.60
2023-09-08T00:27:19.164Z,19.50
2023-09-08T00:28:01.306Z,19.60
2023-09-08T00:28:43.497Z,19.60
2023-09-08T00:29:25.754Z,19.60
2023-09-08T00:30:08.243Z,19.60
2023-09-08T00:30:50.035Z,19.60
2023-09-08T00:31:31.887Z,19.60
2023-09-08T00:32:13.934Z,19.50
2023-09-08T00:32:56.116Z,19.50
2023-09-08T00:33:38.547Z,19.50
2023-09-08T00:34:20.548Z,19.50
2023-09-08T00:35:02.536Z,19.50
2023-09-08T00:35:51.119Z,19.40
2023-09-08T00:36:33.106Z,19.40
2023-09-08T00:37:14.983Z,19.40
2023-09-08T00:37:57.017Z,19.30
2023-09-08T00:38:38.872Z,19.20
2023-09-08T00:39:20.978Z,19.20
2023-09-08T00:40:03.071Z,19.20
2023-09-08T00:40:44.966Z,19.20
2023-09-08T00:41:26.984Z,19.10
2023-09-08T00:42:08.857Z,19.10
2023-09-08T00:42:50.864Z,19.10
2023-09-08T00:43:35.368Z,19.00
2023-09-08T00:44:17.430Z,19.00
2023-09-08T00:44:59.523Z,19.00
2023-09-08T00:45:44.110Z,19.00
2023-09-08T00:46:28.470Z,19.00
2023-09-08T00:47:10.545Z,18.90
2023-09-08T00:48:36.520Z,19.00
2023-09-08T00:49:19.028Z,19.00
2023-09-08T00:50:01.997Z,19.00
2023-09-08T00:51:27.023Z,19.00
2023-09-08T00:52:08.978Z,18.90
2023-09-08T00:52:50.938Z,18.90
2023-09-08T00:53:33.014Z,18.90
2023-09-08T00:54:16.024Z,18.80
2023-09-08T00:54:58.108Z,18.90
2023-09-08T00:55:41.921Z,18.90
2023-09-08T00:56:25.018Z,18.90
2023-09-08T00:57:49.956Z,18.90
2023-09-08T00:58:33.283Z,18.90
2023-09-08T00:59:58.351Z,18.90
2023-09-08T01:00:40.373Z,18.90
2023-09-08T01:01:22.386Z,18.80
2023-09-08T01:02:04.517Z,18.90
2023-09-08T01:02:49.196Z,18.80
2023-09-08T01:03:31.131Z,18.90
2023-09-08T01:04:13.140Z,18.90
2023-09-08T01:04:55.112Z,18.80
2023-09-08T01:05:37.046Z,18.90
2023-09-08T01:06:19.548Z,18.80
2023-09-08T01:07:01.982Z,18.80
2023-09-08T01:07:45.191Z,18.70
2023-09-08T01:08:29.798Z,18.70
2023-09-08T01:09:12.710Z,18.70
2023-09-08T01:09:55.224Z,18.60
2023-09-08T01:11:21.459Z,18.60
2023-09-08T01:12:08.673Z,18.60
2023-09-08T01:12:50.572Z,18.70
2023-09-08T01:13:32.512Z,18.70
2023-09-08T01:14:14.942Z,18.70
2023-09-08T01:14:57.024Z,18.70
2023-09-08T01:15:39.042Z,18.70
2023-09-08T01:16:21.209Z,18.70
2023-09-08T01:17:03.189Z,18.60
2023-09-08T01:17:45.468Z,18.60
2023-09-08T01:18:27.548Z,18.60
2023-09-08T01:19:16.879Z,18.60
2023-09-08T01:20:23.014Z,18.60
2023-09-08T01:21:31.283Z,18.50
2023-09-08T01:22:26.894Z,18.50
2023-09-08T01:23:29.381Z,18.50
2023-09-08T01:24:49.139Z,18.50
2023-09-08T01:25:32.623Z,18.50
2023-09-08T01:26:19.899Z,18.50
2023-09-08T01:27:02.246Z,18.50
2023-09-08T01:27:49.889Z,18.30
2023-09-08T01:28:33.733Z,18.30
2023-09-08T01:29:18.146Z,18.30
2023-09-08T01:30:01.394Z,18.30
2023-09-08T01:30:44.068Z,18.40
2023-09-08T01:31:26.169Z,18.40
2023-09-08T01:32:09.142Z,18.30
2023-09-08T01:32:52.317Z,18.30
2023-09-08T01:33:35.066Z,18.30
2023-09-08T01:34:17.223Z,18.20
2023-09-08T01:35:00.263Z,18.20
2023-09-08T01:35:43.094Z,18.10
2023-09-08T01:36:24.907Z,18.20
2023-09-08T01:37:08.157Z,18.20
2023-09-08T01:37:50.578Z,18.10
2023-09-08T01:38:32.946Z,18.00
2023-09-08T01:39:57.379Z,18.00
2023-09-08T01:40:39.205Z,18.10
2023-09-08T01:41:21.039Z,18.20
2023-09-08T01:42:03.085Z,18.10
2023-09-08T01:42:47.034Z,18.10
2023-09-08T01:43:29.124Z,18.20
2023-09-08T01:44:13.038Z,18.20
2023-09-08T01:44:54.929Z,18.20
2023-09-08T01:45:39.447Z,18.20
2023-09-08T01:46:24.109Z,18.20
2023-09-08T01:47:08.452Z,18.20
2023-09-08T01:47:50.431Z,18.20
2023-09-08T01:48:32.596Z,18.20
2023-09-08T01:49:17.077Z,18.20
2023-09-08T01:49:59.030Z,18.30
2023-09-08T01:50:41.286Z,18.20
2023-09-08T01:51:23.097Z,18.20
2023-09-08T01:52:05.456Z,18.30
2023-09-08T01:52:47.622Z,18.30
2023-09-08T01:53:29.493Z,18.20
2023-09-08T01:54:12.062Z,18.20
2023-09-08T01:56:18.642Z,18.20
2023-09-08T01:57:00.474Z,18.20
2023-09-08T01:57:42.472Z,18.20
2023-09-08T01:58:24.547Z,18.30
2023-09-08T01:59:09.157Z,18.20
2023-09-08T01:59:51.015Z,18.20
2023-09-08T02:00:33.007Z,18.10
2023-09-08T02:01:17.455Z,18.10
2023-09-08T02:01:59.573Z,18.10
2023-09-08T02:02:42.379Z,18.10
2023-09-08T02:03:24.396Z,18.10
2023-09-08T02:04:09.195Z,18.10
2023-09-08T02:04:51.273Z,18.10
2023-09-08T02:05:33.251Z,18.10
2023-09-08T02:06:15.135Z,18.10
2023-09-08T02:06:57.132Z,18.20
2023-09-08T02:07:39.083Z,18.10
2023-09-08T02:08:21.295Z,18.20
2023-09-08T02:09:03.142Z,18.20
2023-09-08T02:09:47.719Z,18.20
2023-09-08T02:10:29.605Z,18.20
2023-09-08T02:11:11.654Z,18.20
2023-09-08T02:11:53.933Z,18.20
2023-09-08T02:12:36.181Z,18.20
2023-09-08T02:13:18.335Z,18.20
2023-09-08T02:14:00.159Z,18.20
2023-09-08T02:15:24.610Z,18.30
2023-09-08T02:16:07.250Z,18.30
2023-09-08T02:16:49.177Z,18.30
2023-09-08T02:17:31.214Z,18.20
2023-09-08T02:18:14.412Z,18.30
2023-09-08T02:18:56.622Z,18.30
2023-09-08T02:21:45.210Z,18.20
2023-09-08T02:22:27.145Z,18.20
2023-09-08T02:23:09.103Z,18.20
2023-09-08T02:23:51.376Z,18.20
2023-09-08T02:24:33.519Z,18.20
2023-09-08T02:25:15.419Z,18.00
2023-09-08T02:25:57.503Z,18.00
2023-09-08T02:26:40.161Z,18.00
2023-09-08T02:27:22.771Z,18.00
2023-09-08T02:28:49.632Z,18.00
2023-09-08T02:29:32.974Z,17.90
2023-09-08T02:30:17.153Z,17.90
2023-09-08T02:30:59.018Z,17.90
2023-09-08T02:31:41.095Z,17.90
2023-09-08T02:32:23.075Z,17.90
2023-09-08T02:33:05.242Z,17.90
2023-09-08T02:33:47.175Z,18.00
2023-09-08T02:34:29.072Z,18.00
2023-09-08T02:35:11.381Z,18.00
2023-09-08T02:35:53.510Z,18.00
2023-09-08T02:36:35.416Z,17.90
2023-09-08T02:37:19.350Z,18.00
2023-09-08T02:38:01.677Z,18.00
2023-09-08T02:38:43.621Z,18.00
2023-09-08T02:39:30.269Z,18.00
2023-09-08T02:40:12.268Z,18.00
2023-09-08T02:40:54.150Z,18.00
2023-09-08T02:41:36.211Z,18.10
2023-09-08T02:42:18.700Z,18.00
2023-09-08T02:43:03.332Z,18.10
2023-09-08T02:43:45.230Z,18.00
2023-09-08T02:44:28.174Z,18.10
2023-09-08T02:45:10.651Z,18.00
2023-09-08T02:45:52.710Z,18.00
2023-09-08T02:46:34.667Z,18.00
2023-09-08T02:47:19.406Z,18.00
2023-09-08T02:48:04.207Z,18.00
2023-09-08T02:48:46.297Z,17.90
2023-09-08T02:49:28.201Z,18.00
2023-09-08T02:50:10.427Z,18.00
2023-09-08T02:51:38.931Z,17.90
2023-09-08T02:52:21.262Z,17.90
2023-09-08T02:53:03.068Z,17.90
2023-09-08T02:53:47.329Z,17.80
2023-09-08T02:54:29.558Z,17.80
2023-09-08T02:55:12.576Z,17.80
2023-09-08T02:56:39.196Z,17.80
2023-09-08T02:57:21.297Z,17.80
2023-09-08T02:58:03.168Z,17.80
2023-09-08T02:58:45.446Z,17.90
2023-09-08T03:00:12.452Z,17.90
2023-09-08T03:02:19.710Z,17.90
2023-09-08T03:03:01.980Z,17.80
2023-09-08T03:03:44.213Z,17.80
2023-09-08T03:04:26.289Z,17.80
2023-09-08T03:05:08.619Z,17.70
2023-09-08T03:05:56.186Z,17.60
2023-09-08T03:06:38.041Z,17.50
2023-09-08T03:07:22.260Z,17.50
2023-09-08T03:10:58.049Z,17.50
2023-09-08T03:11:40.328Z,17.40
2023-09-08T03:12:22.233Z,17.40
2023-09-08T03:13:05.150Z,17.30
2023-09-08T03:13:47.209Z,17.20
2023-09-08T03:14:29.040Z,17.20
2023-09-08T03:15:11.310Z,17.30
2023-09-08T03:15:53.659Z,17.30
2023-09-08T03:16:35.521Z,17.30
2023-09-08T03:17:17.730Z,17.40
2023-09-08T03:18:02.711Z,17.40
2023-09-08T03:18:44.668Z,17.40
2023-09-08T03:19:26.749Z,17.40
2023-09-08T03:20:12.145Z,17.40
2023-09-08T03:20:54.108Z,17.40
2023-09-08T03:23:47.128Z,17.20
2023-09-08T03:24:29.099Z,17.20
2023-09-08T03:25:11.400Z,17.20
2023-09-08T03:25:53.241Z,17.10
2023-09-08T03:26:35.108Z,17.30
2023-09-08T03:27:17.177Z,17.30
2023-09-08T03:27:59.075Z,17.30
2023-09-08T03:28:41.352Z,17.30
2023-09-08T03:30:07.110Z,17.30
2023-09-08T03:30:49.080Z,17.30
2023-09-08T03:31:31.709Z,17.20
2023-09-08T03:32:13.794Z,17.20
2023-09-08T03:34:21.971Z,17.30
2023-09-08T03:35:48.624Z,17.10
2023-09-08T03:36:32.131Z,17.20
2023-09-08T03:37:14.133Z,17.10
2023-09-08T03:37:58.347Z,17.20
2023-09-08T03:38:40.571Z,17.10
2023-09-08T03:39:22.709Z,16.90
2023-09-08T03:40:08.280Z,17.00
2023-09-08T03:40:50.340Z,17.00
2023-09-08T03:41:32.167Z,17.10
2023-09-08T03:42:14.164Z,17.00
2023-09-08T03:42:58.431Z,17.00
2023-09-08T03:44:23.147Z,16.90
2023-09-08T03:45:05.534Z,16.90
2023-09-08T03:45:48.512Z,16.90
2023-09-08T03:46:30.537Z,16.90
2023-09-08T03:47:12.688Z,16.80
2023-09-08T03:47:54.627Z,16.90
2023-09-08T03:48:39.157Z,16.90
2023-09-08T03:49:21.311Z,16.90
2023-09-08T03:50:03.236Z,17.00
2023-09-08T03:50:46.658Z,17.00
2023-09-08T03:52:17.480Z,17.00
2023-09-08T03:52:59.601Z,17.00
2023-09-08T03:53:43.988Z,17.00
2023-09-08T03:54:28.184Z,16.90
2023-09-08T03:55:12.510Z,16.90
2023-09-08T03:55:54.501Z,16.80
2023-09-08T03:56:38.838Z,16.70
2023-09-08T03:57:20.649Z,16.70
2023-09-08T03:58:02.679Z,16.70
2023-09-08T03:58:44.669Z,16.70
2023-09-08T03:59:29.238Z,16.70
2023-09-08T04:00:12.195Z,16.90
2023-09-08T04:00:54.123Z,16.80
2023-09-08T04:01:36.333Z,16.80
2023-09-08T04:02:18.216Z,16.80
2023-09-08T04:03:42.937Z,16.80
2023-09-08T04:05:07.464Z,16.90
2023-09-08T04:05:52.250Z,16.90
2023-09-08T04:07:16.747Z,16.90
2023-09-08T04:07:58.764Z,16.90
2023-09-08T04:08:40.577Z,16.90
2023-09-08T04:09:25.377Z,16.90
2023-09-08T04:10:08.174Z,17.00
2023-09-08T04:10:52.358Z,17.00
2023-09-08T04:11:34.200Z,17.00
2023-09-08T04:12:17.170Z,17.00
2023-09-08T04:12:59.099Z,17.00
2023-09-08T04:14:27.007Z,17.10
2023-09-08T04:15:54.257Z,17.10
2023-09-08T04:16:36.371Z,17.10
2023-09-08T04:17:19.280Z,17.10
2023-09-08T04:18:01.735Z,17.10
2023-09-08T04:20:12.320Z,17.20
2023-09-08T04:20:54.185Z,17.20
2023-09-08T04:21:36.380Z,17.30
2023-09-08T04:22:18.303Z,17.20
2023-09-08T04:23:00.156Z,17.20
2023-09-08T04:23:42.313Z,17.20
2023-09-08T04:24:24.220Z,17.20
2023-09-08T04:25:07.129Z,17.20
2023-09-08T04:25:49.106Z,17.20
2023-09-08T04:26:31.346Z,17.20
2023-09-08T04:27:15.536Z,17.20
2023-09-08T04:28:42.154Z,17.10
2023-09-08T04:29:24.107Z,17.20
2023-09-08T04:30:07.690Z,17.10
2023-09-08T04:30:52.509Z,17.20
2023-09-08T04:31:34.601Z,17.20
2023-09-08T04:32:18.986Z,17.20
2023-09-08T04:33:01.340Z,17.30
2023-09-08T04:33:43.344Z,17.10
2023-09-08T04:34:25.330Z,17.20
2023-09-08T04:35:08.729Z,17.20
2023-09-08T04:35:51.230Z,17.20
2023-09-08T04:36:33.202Z,17.20
2023-09-08T04:37:15.353Z,17.20
2023-09-08T04:37:57.202Z,17.30
2023-09-08T04:38:39.035Z,17.30
2023-09-08T04:39:23.237Z,17.20
2023-09-08T04:40:05.664Z,17.20
2023-09-08T04:40:48.146Z,17.20
2023-09-08T04:42:12.350Z,17.20
2023-09-08T04:42:54.377Z,17.30
2023-09-08T04:43:36.559Z,17.20
2023-09-08T04:44:18.641Z,17.20
2023-09-08T04:46:32.537Z,17.10
2023-09-08T04:47:14.709Z,17.10
2023-09-08T04:47:59.273Z,17.10
2023-09-08T04:48:41.468Z,17.30
2023-09-08T04:49:23.851Z,17.30
2023-09-08T04:50:06.359Z,17.30
2023-09-08T04:51:31.235Z,17.30
2023-09-08T04:52:13.279Z,17.30
2023-09-08T04:52:55.151Z,17.30
2023-09-08T04:53:37.770Z,17.30
2023-09-08T04:54:21.165Z,17.40
2023-09-08T04:55:03.264Z,17.30
2023-09-08T04:55:45.206Z,17.30
2023-09-08T04:56:27.269Z,17.30
2023-09-08T04:57:20.763Z,17.30
2023-09-08T04:58:05.166Z,17.20
2023-09-08T04:58:47.180Z,17.30
2023-09-08T04:59:29.175Z,17.40
2023-09-08T05:02:21.168Z,17.40
2023-09-08T05:03:45.673Z,17.30
2023-09-08T05:04:30.637Z,17.40
2023-09-08T05:05:55.363Z,17.40
2023-09-08T05:06:37.645Z,17.40
2023-09-08T05:07:20.218Z,17.40
2023-09-08T05:08:02.200Z,17.30
2023-09-08T05:08:45.357Z,17.30
2023-09-08T05:09:27.247Z,17.30
2023-09-08T05:10:09.621Z,17.30
2023-09-08T05:10:54.529Z,17.40
2023-09-08T05:11:36.653Z,17.40
2023-09-08T05:12:18.734Z,17.40
2023-09-08T05:13:00.640Z,17.40
2023-09-08T05:14:26.192Z,17.50
2023-09-08T05:16:01.454Z,17.50
2023-09-08T05:16:47.638Z,17.50
2023-09-08T05:18:14.283Z,17.40
2023-09-08T05:18:56.344Z,17.50
2023-09-08T05:19:38.418Z,17.50
2023-09-08T05:20:20.395Z,17.50
2023-09-08T05:21:02.399Z,17.50
2023-09-08T05:21:44.749Z,17.50
2023-09-08T05:22:29.033Z,17.50
2023-09-08T05:23:13.381Z,17.40
2023-09-08T05:24:38.171Z,17.50
2023-09-08T05:25:22.762Z,17.60
2023-09-08T05:26:04.700Z,17.50
2023-09-08T05:26:47.057Z,17.40
2023-09-08T05:27:28.880Z,17.50
2023-09-08T05:28:10.795Z,17.50
2023-09-08T05:28:53.085Z,17.50
2023-09-08T05:29:37.557Z,17.50
2023-09-08T05:30:19.769Z,17.50
2023-09-08T05:31:04.749Z,17.50
2023-09-08T05:31:46.993Z,17.50
2023-09-08T05:32:29.008Z,17.60
2023-09-08T05:33:11.149Z,17.60
2023-09-08T05:33:53.636Z,17.60
2023-09-08T05:36:05.641Z,17.60
2023-09-08T05:36:47.726Z,17.60
2023-09-08T05:37:29.631Z,17.50
2023-09-08T05:38:11.913Z,17.50
2023-09-08T05:38:54.102Z,17.60
2023-09-08T05:39:36.324Z,17.60
2023-09-08T05:40:22.712Z,17.60
2023-09-08T05:41:04.724Z,17.60
2023-09-08T05:42:29.496Z,17.60
2023-09-08T05:43:11.766Z,17.70
2023-09-08T05:43:53.759Z,17.70
2023-09-08T05:45:18.425Z,17.60
2023-09-08T05:46:00.402Z,17.60
2023-09-08T05:46:45.263Z,17.70
2023-09-08T05:47:27.218Z,17.70
2023-09-08T05:48:09.156Z,17.70
2023-09-08T05:48:51.329Z,17.70
2023-09-08T05:50:19.227Z,17.80
2023-09-08T05:51:45.603Z,17.70
2023-09-08T05:53:11.538Z,17.70
2023-09-08T05:53:53.735Z,17.70
2023-09-08T05:56:00.622Z,17.70
2023-09-08T05:57:27.334Z,17.70
2023-09-08T05:58:09.195Z,17.70
2023-09-08T05:58:51.273Z,17.80
2023-09-08T05:59:33.228Z,17.80
2023-09-08T06:00:58.197Z,17.80
2023-09-08T06:01:42.455Z,17.80
2023-09-08T06:02:24.574Z,17.80
2023-09-08T06:03:06.828Z,17.80
2023-09-08T06:03:49.023Z,17.90
2023-09-08T06:04:33.953Z,17.90
2023-09-08T06:06:41.202Z,18.00
2023-09-08T06:07:23.125Z,17.90
2023-09-08T06:08:07.774Z,18.10
2023-09-08T06:08:52.067Z,18.10
2023-09-08T06:09:34.126Z,18.10
2023-09-08T06:10:16.035Z,18.10
2023-09-08T06:12:22.728Z,18.10
2023-09-08T06:13:04.901Z,18.10
2023-09-08T06:13:47.071Z,18.10
2023-09-08T06:14:28.897Z,18.20
2023-09-08T06:15:10.738Z,18.20
2023-09-08T06:15:52.737Z,18.20
2023-09-08T06:16:34.689Z,18.30
2023-09-08T06:17:16.814Z,18.00
2023-09-08T06:17:58.744Z,18.30
2023-09-08T06:18:45.212Z,18.20
2023-09-08T06:19:27.093Z,18.30
2023-09-08T06:20:12.320Z,18.30
2023-09-08T06:20:54.251Z,18.30
2023-09-08T06:21:36.270Z,18.30
2023-09-08T06:22:18.077Z,18.30
2023-09-08T06:23:02.508Z,18.30
2023-09-08T06:23:44.353Z,18.40
2023-09-08T06:24:26.173Z,18.40
2023-09-08T06:25:08.405Z,18.50
2023-09-08T06:25:53.288Z,18.40
2023-09-08T06:26:35.211Z,18.50
2023-09-08T06:27:17.239Z,18.60
2023-09-08T06:27:59.045Z,18.60
2023-09-08T06:28:42.968Z,18.60
2023-09-08T06:30:49.777Z,18.80
2023-09-08T06:31:31.959Z,18.70
2023-09-08T06:32:13.999Z,18.80
2023-09-08T06:32:58.412Z,18.80
2023-09-08T06:33:40.603Z,18.80
2023-09-08T06:34:24.265Z,18.80
2023-09-08T06:35:49.038Z,18.80
2023-09-08T06:36:33.245Z,18.80
2023-09-08T06:37:15.088Z,18.80
2023-09-08T06:37:58.955Z,18.80
2023-09-08T06:38:41.270Z,18.80
2023-09-08T06:39:23.225Z,18.90
2023-09-08T06:40:49.145Z,18.90
2023-09-08T06:41:31.061Z,18.90
2023-09-08T06:42:15.291Z,19.00
2023-09-08T06:42:59.575Z,19.10
2023-09-08T06:43:43.873Z,19.20
2023-09-08T06:44:28.544Z,19.10
2023-09-08T06:45:13.197Z,19.10
2023-09-08T06:45:57.412Z,19.10
2023-09-08T06:46:39.316Z,19.10
2023-09-08T06:47:21.232Z,19.10
2023-09-08T06:48:03.351Z,19.10
2023-09-08T06:48:45.354Z,19.30
2023-09-08T06:49:27.216Z,19.30
2023-09-08T06:50:09.263Z,19.30
2023-09-08T06:50:55.649Z,19.30
2023-09-08T06:51:38.147Z,19.20
2023-09-08T06:52:20.209Z,19.30
2023-09-08T06:53:02.186Z,19.30
2023-09-08T06:53:45.551Z,19.40
2023-09-08T06:54:27.726Z,19.40
2023-09-08T06:55:10.596Z,19.40
2023-09-08T06:55:52.578Z,19.40
2023-09-08T06:56:36.766Z,19.50
2023-09-08T06:57:22.102Z,19.50
2023-09-08T06:58:04.131Z,19.50
2023-09-08T06:58:46.247Z,19.50
2023-09-08T06:59:28.241Z,19.50
2023-09-08T07:00:12.663Z,19.50
2023-09-08T07:00:55.775Z,19.60
2023-09-08T07:02:20.539Z,19.60
2023-09-08T07:03:03.942Z,19.60
2023-09-08T07:03:46.762Z,19.60
2023-09-08T07:04:29.519Z,19.70
2023-09-08T07:05:11.897Z,19.80
2023-09-08T07:05:53.961Z,19.80
2023-09-08T07:06:38.086Z,19.80
2023-09-08T07:07:21.476Z,19.80
2023-09-08T07:08:03.744Z,19.80
2023-09-08T07:08:45.561Z,19.80
2023-09-08T07:09:27.556Z,19.90
2023-09-08T07:10:10.179Z,19.90
2023-09-08T07:12:24.203Z,20.00
2023-09-08T07:13:06.272Z,20.00
2023-09-08T07:13:48.220Z,20.10
2023-09-08T07:14:32.641Z,20.10
2023-09-08T07:15:17.311Z,20.10
2023-09-08T07:15:59.247Z,20.10
2023-09-08T07:16:41.209Z,20.10
2023-09-08T07:17:24.709Z,20.20
2023-09-08T07:18:09.309Z,20.20
2023-09-08T07:18:51.656Z,20.20
2023-09-08T07:19:33.738Z,20.20
2023-09-08T07:20:15.661Z,20.20
2023-09-08T07:20:57.876Z,20.20
2023-09-08T07:21:39.683Z,20.30
2023-09-08T07:22:24.292Z,20.30
2023-09-08T07:23:07.214Z,20.40
2023-09-08T07:23:49.208Z,20.30
2023-09-08T07:25:13.251Z,20.40
2023-09-08T07:25:55.220Z,20.40
2023-09-08T07:26:37.057Z,20.40
2023-09-08T07:27:20.398Z,20.50
2023-09-08T07:28:02.288Z,20.40
2023-09-08T07:28:44.193Z,20.50
2023-09-08T07:29:26.297Z,20.50
2023-09-08T07:30:08.659Z,20.70
2023-09-08T07:30:50.653Z,20.70
2023-09-08T07:31:32.709Z,20.60
2023-09-08T07:32:14.666Z,20.60
2023-09-08T07:32:56.841Z,20.60
2023-09-08T07:33:39.635Z,20.70
2023-09-08T07:35:04.311Z,20.70
2023-09-08T07:35:46.684Z,20.80
2023-09-08T07:36:28.755Z,20.80
2023-09-08T07:37:10.640Z,20.90
2023-09-08T07:37:52.971Z,20.80
2023-09-08T07:38:35.953Z,20.90
2023-09-08T07:40:00.336Z,21.00
2023-09-08T07:40:43.187Z,20.90
2023-09-08T07:41:27.519Z,20.90
2023-09-08T07:42:12.173Z,20.90
2023-09-08T07:42:54.162Z,20.90
2023-09-08T07:43:41.514Z,21.00
2023-09-08T07:44:23.780Z,21.00
2023-09-08T07:45:06.350Z,21.00
2023-09-08T07:45:48.224Z,21.00
2023-09-08T07:46:30.667Z,21.00
2023-09-08T07:47:12.794Z,21.10
2023-09-08T07:47:54.818Z,21.10
2023-09-08T07:48:37.047Z,21.20
2023-09-08T07:49:20.797Z,21.30
2023-09-08T07:50:23.821Z,21.30
2023-09-08T07:51:05.701Z,21.30
2023-09-08T07:51:47.973Z,21.40
2023-09-08T07:52:32.245Z,21.60
2023-09-08T07:53:14.197Z,21.40
2023-09-08T07:53:57.213Z,21.30
2023-09-08T07:54:39.160Z,21.40
2023-09-08T07:55:24.743Z,21.50
2023-09-08T07:56:06.881Z,21.40
2023-09-08T07:56:51.046Z,21.50
2023-09-08T07:57:32.972Z,21.60
2023-09-08T07:58:16.995Z,21.70
2023-09-08T07:59:01.250Z,21.70
2023-09-08T07:59:43.238Z,21.60
2023-09-08T08:00:25.180Z,21.60
2023-09-08T08:01:07.330Z,21.70
2023-09-08T08:02:32.565Z,21.80
2023-09-08T08:03:14.657Z,21.80
2023-09-08T08:03:56.846Z,21.90
2023-09-08T08:04:38.830Z,21.90
2023-09-08T08:05:20.880Z,21.90
2023-09-08T08:06:03.143Z,22.00
2023-09-08T08:06:47.162Z,22.00
2023-09-08T08:07:29.105Z,21.90
2023-09-08T08:08:53.269Z,22.10
2023-09-08T08:09:35.186Z,22.10
2023-09-08T08:10:17.488Z,22.20
2023-09-08T08:11:00.360Z,22.20
2023-09-08T08:11:42.833Z,22.20
2023-09-08T08:12:24.830Z,22.20
2023-09-08T08:13:09.171Z,22.30
2023-09-08T08:13:51.253Z,22.30
2023-09-08T08:14:33.193Z,22.40
2023-09-08T08:15:15.664Z,22.30
2023-09-08T08:15:57.737Z,22.40
2023-09-08T08:16:39.665Z,22.40
2023-09-08T08:17:21.762Z,22.50
2023-09-08T08:18:05.737Z,22.50
2023-09-08T08:18:48.053Z,22.50
2023-09-08T08:19:30.104Z,22.50
2023-09-08T08:20:18.560Z,22.50
2023-09-08T08:21:01.646Z,22.60
2023-09-08T08:21:43.767Z,22.60
2023-09-08T08:22:28.584Z,22.60
2023-09-08T08:23:10.524Z,22.70
2023-09-08T08:23:52.773Z,22.70
2023-09-08T08:24:34.709Z,23.00
2023-09-08T08:25:17.153Z,22.80
2023-09-08T08:25:59.169Z,22.90
2023-09-08T08:26:41.280Z,22.90
2023-09-08T08:27:23.303Z,22.90
2023-09-08T08:28:05.650Z,22.80
2023-09-08T08:28:47.749Z,22.90
2023-09-08T08:29:30.234Z,22.80
2023-09-08T08:30:12.579Z,22.90
2023-09-08T08:30:54.734Z,23.00
2023-09-08T08:31:39.323Z,23.10
2023-09-08T08:32:21.274Z,23.00
2023-09-08T08:33:03.297Z,23.00
2023-09-08T08:33:45.213Z,23.00
2023-09-08T08:34:27.242Z,23.00
2023-09-08T08:35:09.204Z,23.10
2023-09-08T08:35:52.392Z,23.10
2023-09-08T08:36:34.337Z,23.10
2023-09-08T08:37:16.715Z,23.10
2023-09-08T08:38:01.712Z,23.10
2023-09-08T08:38:43.783Z,23.20
2023-09-08T08:39:25.613Z,23.20
2023-09-08T08:40:08.355Z,23.30
2023-09-08T08:40:50.317Z,23.30
2023-09-08T08:41:32.204Z,23.40
2023-09-08T08:42:15.336Z,23.40
2023-09-08T08:43:00.074Z,23.40
2023-09-08T08:43:48.429Z,23.50
2023-09-08T08:44:30.637Z,23.40
2023-09-08T08:45:13.306Z,23.60
2023-09-08T08:45:59.163Z,23.70
2023-09-08T08:46:42.684Z,23.70
2023-09-08T08:47:27.264Z,23.70
2023-09-08T08:48:09.887Z,23.90
2023-09-08T08:48:55.585Z,23.90
2023-09-08T08:49:40.188Z,23.90
2023-09-08T08:50:22.244Z,24.00
2023-09-08T08:51:05.594Z,24.00
2023-09-08T08:51:48.991Z,24.10
2023-09-08T08:52:34.605Z,24.10
2023-09-08T08:53:18.529Z,24.20
2023-09-08T08:54:05.374Z,24.20
2023-09-08T08:54:47.392Z,24.20
2023-09-08T08:55:31.359Z,24.20
2023-09-08T08:56:13.206Z,24.20
2023-09-08T08:56:55.260Z,24.20
2023-09-08T08:57:40.756Z,24.40
2023-09-08T08:58:26.184Z,24.30
2023-09-08T08:59:08.263Z,24.50
2023-09-08T08:59:52.948Z,24.60
2023-09-08T09:00:37.805Z,24.50
2023-09-08T09:01:22.282Z,24.40
2023-09-08T09:02:05.502Z,24.40
2023-09-08T09:03:35.566Z,24.50
2023-09-08T09:04:20.153Z,24.50
2023-09-08T09:05:02.457Z,24.50
2023-09-08T09:05:48.547Z,24.50
2023-09-08T09:06:31.228Z,24.40
2023-09-08T09:07:13.394Z,24.40
2023-09-08T09:07:59.002Z,24.40
2023-09-08T09:08:44.206Z,24.50
2023-09-08T09:09:26.308Z,24.60
2023-09-08T09:10:09.237Z,24.70
2023-09-08T09:10:52.823Z,24.70
2023-09-08T09:11:34.830Z,24.70
2023-09-08T09:12:19.511Z,24.70
2023-09-08T09:13:03.642Z,24.80
2023-09-08T09:13:45.628Z,24.80
2023-09-08T09:14:27.836Z,24.80
2023-09-08T09:15:10.409Z,24.90
2023-09-08T09:15:53.133Z,25.00
2023-09-08T09:16:44.795Z,25.00
2023-09-08T09:17:27.255Z,25.00
2023-09-08T09:18:09.820Z,25.00
2023-09-08T09:18:59.296Z,25.10
2023-09-08T09:19:41.364Z,25.20
2023-09-08T09:20:26.104Z,25.20
2023-09-08T09:21:10.315Z,25.30
2023-09-08T09:21:55.437Z,25.30
2023-09-08T09:22:39.866Z,25.30
2023-09-08T09:23:35.648Z,25.30
2023-09-08T09:24:44.505Z,25.20
2023-09-08T09:25:31.913Z,25.20
2023-09-08T09:26:25.408Z,25.30
2023-09-08T09:27:10.447Z,25.30
2023-09-08T09:27:57.269Z,25.30
2023-09-08T09:28:49.476Z,25.30
2023-09-08T09:29:31.359Z,25.40
2023-09-08T09:30:13.354Z,25.50
2023-09-08T09:30:58.214Z,25.60
2023-09-08T09:31:53.166Z,25.60
2023-09-08T09:32:36.570Z,25.60
2023-09-08T09:33:19.055Z,25.60
2023-09-08T09:34:08.360Z,25.70
2023-09-08T09:34:54.898Z,25.70
2023-09-08T09:35:47.386Z,25.80
2023-09-08T09:36:29.288Z,25.80
2023-09-08T09:37:11.512Z,25.80
2023-09-08T09:37:56.304Z,25.80
2023-09-08T09:38:38.513Z,25.70
2023-09-08T09:39:25.421Z,25.80
2023-09-08T09:40:08.842Z,25.90
2023-09-08T09:40:50.898Z,26.00
2023-09-08T09:41:32.862Z,26.00
2023-09-08T09:42:16.913Z,25.90
2023-09-08T09:43:02.544Z,25.90
2023-09-08T09:43:45.452Z,25.90
2023-09-08T09:44:28.280Z,25.90
2023-09-08T09:45:10.810Z,25.90
2023-09-08T09:45:52.921Z,25.80
2023-09-08T09:46:35.202Z,25.90
2023-09-08T09:47:17.636Z,26.10
2023-09-08T09:47:59.923Z,26.10
2023-09-08T09:48:42.153Z,26.10
2023-09-08T09:49:27.890Z,26.10
2023-09-08T09:50:12.217Z,26.10
2023-09-08T09:50:54.785Z,26.20
2023-09-08T09:52:07.558Z,29.90
2023-09-08T09:52:49.739Z,26.10
2023-09-08T09:53:32.291Z,26.20
2023-09-08T09:54:15.503Z,26.20
2023-09-08T09:55:00.144Z,26.20
2023-09-08T09:55:46.583Z,26.30
2023-09-08T09:56:29.228Z,26.30
2023-09-08T09:57:14.851Z,26.30
2023-09-08T09:58:04.826Z,26.40
2023-09-08T09:58:48.260Z,26.40
2023-09-08T09:59:30.568Z,26.40
2023-09-08T10:00:15.242Z,26.40
2023-09-08T10:00:57.631Z,26.50
2023-09-08T10:01:41.399Z,26.50
2023-09-08T10:02:23.918Z,26.50
2023-09-08T10:03:07.041Z,26.50
2023-09-08T10:03:49.928Z,26.60
2023-09-08T10:04:33.531Z,26.70
2023-09-08T10:05:16.269Z,26.70
2023-09-08T10:05:58.314Z,26.70
2023-09-08T10:06:42.095Z,26.70
2023-09-08T10:07:24.432Z,26.80
2023-09-08T10:08:06.969Z,26.80
2023-09-08T10:08:49.138Z,26.80
2023-09-08T10:09:33.161Z,26.90
2023-09-08T10:10:15.704Z,26.80
2023-09-08T10:10:58.579Z,26.70
2023-09-08T10:11:49.873Z,26.80
2023-09-08T10:12:33.561Z,26.80
2023-09-08T10:13:24.515Z,26.90
2023-09-08T10:14:09.156Z,26.90
2023-09-08T10:14:57.217Z,26.90
2023-09-08T10:15:41.006Z,27.00
2023-09-08T10:16:23.421Z,27.00
2023-09-08T10:17:09.412Z,27.00
2023-09-08T10:17:58.791Z,27.10